Time;durP1;ratioP1;P1;durP2;ratioP2;P2;SDS_P1;SDS_P2;PMS_P1;PMS_P2;Temp;Humidity;BMP_temperature;BMP_pressure;BME280_temperature;BME280_humidity;BME280_pressure;Samples;Min_cycle;Max_cycle;Signal;HPM_P1;HPM_P2
2021/12/12 00:00:03;;;;;;;37.25;13.07;;;;;;;0.98;57.63;101887.91;4979742;28;20035;-71
2021/12/12 00:02:57;;;;;;;31.17;14.13;;;;;;;0.94;57.97;101886.13;4971221;28;20038;-67
2021/12/12 00:05:29;;;;;;;37.60;14.60;;;;;;;1.06;57.27;101868.31;4976247;28;20041;-70
2021/12/12 00:07:55;;;;;;;37.97;14.07;;;;;;;0.93;57.27;101874.09;4945278;28;20146;-70
2021/12/12 00:10:25;;;;;;;46.25;15.18;;;;;;;1.26;57.01;101875.44;4972551;28;20069;-70
2021/12/12 00:12:58;;;;;;;27.08;12.88;;;;;;;1.25;57.02;101866.00;4981878;28;20116;-69
2021/12/12 00:15:24;;;;;;;38.45;14.00;;;;;;;1.47;56.95;101862.06;4978418;28;20499;-70
2021/12/12 00:17:50;;;;;;;48.63;15.60;;;;;;;1.44;56.73;101867.16;4964231;28;20149;-70
2021/12/12 00:20:22;;;;;;;38.47;14.18;;;;;;;0.32;60.33;101870.44;4981899;28;20038;-71
2021/12/12 00:22:48;;;;;;;43.58;15.23;;;;;;;0.52;60.20;101863.09;4963314;28;20041;-72
2021/12/12 00:25:15;;;;;;;35.92;13.95;;;;;;;1.28;57.96;101860.88;4962400;28;20034;-70
2021/12/12 00:27:41;;;;;;;41.08;15.23;;;;;;;1.05;58.63;101855.41;4925246;28;20587;-70
2021/12/12 00:30:09;;;;;;;42.00;15.25;;;;;;;1.16;58.92;101858.13;4970608;28;20026;-70
2021/12/12 00:32:37;;;;;;;40.67;15.82;;;;;;;1.07;58.37;101858.88;4976740;28;20109;-71
2021/12/12 00:35:07;;;;;;;42.72;16.45;;;;;;;1.50;57.55;101850.06;4981893;28;20498;-71
2021/12/12 00:37:32;;;;;;;34.75;15.45;;;;;;;1.71;56.87;101843.47;4960953;28;20423;-72
2021/12/12 00:40:09;;;;;;;45.08;15.25;;;;;;;1.52;57.71;101840.63;4981541;28;20038;-71
2021/12/12 00:42:37;;;;;;;38.58;15.60;;;;;;;1.41;58.06;101837.06;4964406;28;20057;-71
2021/12/12 00:45:09;;;;;;;47.67;16.88;;;;;;;1.51;57.68;101840.63;4964734;28;20169;-71
2021/12/12 00:47:35;;;;;;;40.50;17.10;;;;;;;1.58;57.29;101836.44;4947404;28;20516;-71
2021/12/12 00:50:06;;;;;;;36.95;15.55;;;;;;;1.72;56.96;101840.03;4956900;28;20058;-72
2021/12/12 00:52:32;;;;;;;38.05;17.50;;;;;;;1.72;57.27;101835.75;4976934;28;20057;-72
2021/12/12 00:54:58;;;;;;;42.60;16.02;;;;;;;1.25;58.75;101843.69;4984519;28;20038;-71
2021/12/12 00:57:24;;;;;;;51.67;18.20;;;;;;;1.39;58.43;101835.28;4965068;28;20332;-72
2021/12/12 00:59:49;;;;;;;41.90;16.70;;;;;;;1.87;56.74;101840.22;4963965;28;20680;-71
2021/12/12 01:02:21;;;;;;;49.17;16.20;;;;;;;1.21;59.00;101847.03;4980087;28;20450;-72
2021/12/12 01:04:51;;;;;;;42.22;18.50;;;;;;;1.70;57.59;101841.72;4952973;28;20033;-71
2021/12/12 01:07:32;;;;;;;44.85;18.00;;;;;;;1.00;59.32;101850.19;4979665;28;20065;-70
2021/12/12 01:10:07;;;;;;;45.13;17.45;;;;;;;1.45;58.81;101837.97;4980008;28;20776;-69
2021/12/12 01:12:35;;;;;;;42.53;18.38;;;;;;;0.98;59.25;101831.25;4950057;28;20084;-70
2021/12/12 01:15:20;;;;;;;44.78;17.50;;;;;;;1.26;58.99;101845.44;4977815;28;20034;-70
2021/12/12 01:17:49;;;;;;;46.42;17.83;;;;;;;1.31;59.14;101838.63;4951311;28;22907;-71
2021/12/12 01:20:27;;;;;;;45.05;17.73;;;;;;;1.21;59.21;101838.47;4965203;28;20038;-71
2021/12/12 01:22:56;;;;;;;49.40;19.40;;;;;;;1.39;58.73;101835.28;4946632;28;20668;-71
2021/12/12 01:25:29;;;;;;;47.25;17.80;;;;;;;1.23;59.39;101829.06;4978285;28;20046;-71
2021/12/12 01:27:57;;;;;;;46.45;18.95;;;;;;;1.28;59.52;101850.56;4978399;28;20108;-71
2021/12/12 01:30:24;;;;;;;51.25;18.35;;;;;;;1.86;57.74;101842.78;4981338;28;20105;-70
2021/12/12 01:32:51;;;;;;;46.42;18.50;;;;;;;1.87;57.67;101835.06;4978960;28;20045;-71
2021/12/12 01:35:19;;;;;;;51.65;19.63;;;;;;;1.35;59.38;101834.38;4979296;28;20053;-71
2021/12/12 01:38:50;;;;;;;45.42;17.90;;;;;;;1.90;57.75;101839.38;4966256;28;20055;-71
2021/12/12 01:40:35;;;;;;;49.08;19.38;;;;;;;1.81;57.70;101840.16;4977131;28;20542;-72
2021/12/12 01:43:26;;;;;;;44.38;19.60;;;;;;;2.00;57.33;101837.78;4978359;28;20059;-70
2021/12/12 01:46:00;;;;;;;47.75;19.00;;;;;;;2.11;56.97;101838.78;4966382;28;20088;-70
2021/12/12 01:48:42;;;;;;;48.80;18.35;;;;;;;2.03;57.33;101845.56;4975204;28;20171;-70
2021/12/12 01:51:10;;;;;;;43.22;19.33;;;;;;;2.10;57.13;101847.34;4966950;28;20520;-71
2021/12/12 01:53:41;;;;;;;46.05;19.90;;;;;;;2.02;57.35;101843.81;4963021;28;20129;-71
2021/12/12 01:56:12;;;;;;;47.87;20.17;;;;;;;2.20;56.74;101844.03;4979629;28;20030;-71
2021/12/12 01:58:41;;;;;;;49.93;19.47;;;;;;;2.27;56.46;101848.41;4977564;28;20138;-70
2021/12/12 02:01:08;;;;;;;46.55;19.65;;;;;;;2.24;56.70;101845.81;4978742;28;20334;-70
2021/12/12 02:03:39;;;;;;;46.88;19.15;;;;;;;1.93;57.26;101835.16;4978313;28;20121;-70
2021/12/12 02:06:14;;;;;;;56.38;20.27;;;;;;;2.26;56.77;101844.06;4968570;28;20045;-68
2021/12/12 02:08:41;;;;;;;52.05;20.67;;;;;;;1.59;58.49;101854.47;4979948;28;20063;-68
2021/12/12 02:11:16;;;;;;;50.78;20.50;;;;;;;2.01;57.30;101842.09;4966167;28;20045;-71
2021/12/12 02:13:45;;;;;;;54.25;21.52;;;;;;;1.55;58.55;101849.25;4979203;28;20034;-70
2021/12/12 02:16:11;;;;;;;57.22;21.95;;;;;;;1.57;58.64;101845.00;4983185;28;20046;-70
2021/12/12 02:18:41;;;;;;;53.88;20.50;;;;;;;1.90;57.57;101837.66;4979367;28;20054;-70
2021/12/12 02:21:22;;;;;;;54.03;22.90;;;;;;;2.08;57.18;101841.31;4984180;28;20062;-70
2021/12/12 02:35:20;;;;;;;66.55;23.90;;;;;;;2.38;56.48;101842.47;4978439;28;20061;-67
2021/12/12 02:37:48;;;;;;;57.90;23.77;;;;;;;1.84;58.08;101850.50;4978949;28;20054;-67
2021/12/12 02:40:20;;;;;;;55.00;25.80;;;;;;;1.70;58.00;101852.03;4982421;28;20101;-67
2021/12/12 02:42:45;;;;;;;54.47;22.88;;;;;;;2.08;57.56;101849.03;4971749;28;20454;-67
2021/12/12 02:45:16;;;;;;;63.95;24.95;;;;;;;2.18;57.12;101845.72;4964621;28;20026;-68
2021/12/12 02:47:43;;;;;;;62.08;22.42;;;;;;;2.26;56.60;101836.34;4983379;28;20116;-67
2021/12/12 02:50:22;;;;;;;60.40;23.63;;;;;;;2.57;55.79;101834.03;4983193;28;20033;-67
2021/12/12 02:52:56;;;;;;;62.95;22.90;;;;;;;2.71;55.15;101832.47;4986095;28;20042;-67
2021/12/12 02:55:31;;;;;;;58.75;24.13;;;;;;;2.49;55.76;101827.97;4984167;28;20112;-68
2021/12/12 02:57:59;;;;;;;60.35;21.50;;;;;;;2.82;55.08;101824.78;4958325;28;20119;-69
2021/12/12 03:00:31;;;;;;;59.15;25.25;;;;;;;2.60;55.87;101834.09;4983677;28;20327;-67
2021/12/12 03:02:59;;;;;;;60.63;24.05;;;;;;;2.47;56.18;101825.38;4955368;28;20030;-68
2021/12/12 03:05:28;;;;;;;58.67;23.50;;;;;;;2.61;55.97;101820.31;4984189;28;20045;-69
2021/12/12 03:07:54;;;;;;;64.43;25.40;;;;;;;2.70;55.15;101814.38;4983536;28;20105;-67
2021/12/12 03:10:28;;;;;;;53.55;25.08;;;;;;;2.52;56.04;101810.78;4983640;28;20033;-68
2021/12/12 03:12:54;;;;;;;50.05;22.13;;;;;;;2.76;55.34;101811.84;4981247;28;20037;-67
2021/12/12 03:15:28;;;;;;;56.28;21.75;;;;;;;2.75;55.35;101808.38;4971260;28;20607;-69
2021/12/12 03:17:56;;;;;;;58.45;22.63;;;;;;;2.86;55.14;101807.59;4981881;28;20037;-66
2021/12/12 03:20:32;;;;;;;59.05;22.98;;;;;;;2.80;55.37;101798.13;4982326;28;20136;-68
2021/12/12 03:23:20;;;;;;;58.10;19.85;;;;;;;2.55;56.08;101802.19;4968205;28;20534;-68
2021/12/12 03:25:49;;;;;;;45.30;20.27;;;;;;;2.57;55.98;101798.78;4987861;28;20034;-67
2021/12/12 03:28:19;;;;;;;49.90;20.73;;;;;;;2.51;56.41;101798.75;4966728;28;20098;-68
2021/12/12 03:30:48;;;;;;;51.25;21.15;;;;;;;2.45;56.69;101811.59;4983351;28;20112;-68
2021/12/12 03:33:14;;;;;;;48.58;19.65;;;;;;;2.53;56.50;101811.63;4983195;28;20053;-67
2021/12/12 03:35:40;;;;;;;53.75;21.90;;;;;;;2.24;56.87;101809.69;4982704;28;20697;-69
2021/12/12 03:38:07;;;;;;;46.47;19.42;;;;;;;2.36;56.90;101808.94;4971507;28;20044;-70
2021/12/12 03:40:39;;;;;;;57.80;22.60;;;;;;;2.53;56.71;101812.53;4956096;28;20044;-70
2021/12/12 03:43:07;;;;;;;55.58;19.75;;;;;;;2.62;56.22;101803.97;4982474;28;20070;-70
2021/12/12 03:45:33;;;;;;;47.08;22.33;;;;;;;2.59;56.29;101795.34;4954884;28;20038;-70
2021/12/12 03:48:04;;;;;;;53.85;21.20;;;;;;;2.93;55.42;101799.03;4980617;28;20053;-71
2021/12/12 03:50:33;;;;;;;47.22;20.05;;;;;;;3.01;55.40;101805.13;4971965;28;20129;-71
2021/12/12 03:52:59;;;;;;;45.63;18.88;;;;;;;2.43;56.69;101789.22;4965258;28;20134;-69
2021/12/12 03:55:27;;;;;;;45.17;18.90;;;;;;;2.50;56.56;101780.66;4982731;28;20038;-71
2021/12/12 03:57:53;;;;;;;42.25;18.88;;;;;;;2.63;56.84;101769.56;4953513;28;20134;-69
2021/12/12 04:00:26;;;;;;;43.58;18.58;;;;;;;2.63;56.65;101772.16;4980343;28;20033;-69
2021/12/12 04:02:53;;;;;;;40.53;17.20;;;;;;;2.44;56.99;101759.97;4980143;28;20046;-69
2021/12/12 04:05:19;;;;;;;41.78;18.45;;;;;;;2.74;56.45;101757.59;4981312;28;20026;-67
2021/12/12 04:07:46;;;;;;;39.17;17.65;;;;;;;2.67;56.33;101745.53;4980983;28;20046;-68
2021/12/12 04:10:16;;;;;;;45.85;18.02;;;;;;;2.88;56.09;101747.38;4956690;28;20031;-70
2021/12/12 04:12:41;;;;;;;44.00;18.30;;;;;;;2.38;57.19;101735.00;4983735;28;20069;-70
2021/12/12 04:15:07;;;;;;;38.97;17.23;;;;;;;2.67;56.80;101734.34;4967826;28;20034;-69
2021/12/12 04:17:33;;;;;;;40.58;17.60;;;;;;;1.82;59.47;101733.63;4977747;28;20042;-70
2021/12/12 04:20:04;;;;;;;33.75;16.25;;;;;;;2.73;56.74;101732.66;4963047;28;20038;-70
2021/12/12 04:22:34;;;;;;;42.47;16.95;;;;;;;2.51;57.66;101726.50;4982904;28;20587;-70
2021/12/12 04:25:00;;;;;;;51.97;18.65;;;;;;;2.61;57.06;101727.41;4965814;28;20129;-70
2021/12/12 04:27:26;;;;;;;34.25;17.35;;;;;;;2.44;57.67;101732.44;4969087;28;20133;-70
2021/12/12 04:29:54;;;;;;;38.67;16.75;;;;;;;2.72;57.04;101736.09;4976838;28;20242;-69
2021/12/12 04:32:24;;;;;;;38.97;16.42;;;;;;;2.95;56.22;101732.78;4969831;28;20046;-71
2021/12/12 04:35:00;;;;;;;39.90;16.88;;;;;;;2.45;57.64;101735.91;4979350;28;20030;-70
2021/12/12 04:37:27;;;;;;;36.78;16.13;;;;;;;2.73;56.96;101727.50;4965232;28;20034;-70
2021/12/12 04:39:57;;;;;;;37.83;15.32;;;;;;;2.59;57.35;101731.69;4982596;28;20406;-71
2021/12/12 04:42:31;;;;;;;31.52;16.02;;;;;;;2.58;57.60;101724.81;4979912;28;20631;-70
2021/12/12 04:45:26;;;;;;;30.83;14.02;;;;;;;2.82;57.15;101731.81;4968120;28;20252;-71
2021/12/12 04:51:00;;;;;;;32.80;13.07;;;;;;;1.91;60.06;101713.09;4975950;28;20026;-70
2021/12/12 04:53:34;;;;;;;26.15;12.77;;;;;;;2.61;58.14;101711.91;4968089;28;20100;-72
2021/12/12 04:56:05;;;;;;;32.55;14.82;;;;;;;2.52;58.13;101704.97;4938783;28;20026;-71
2021/12/12 04:58:58;;;;;;;32.92;14.30;;;;;;;2.32;59.38;101712.56;4953957;28;20042;-73
2021/12/12 05:01:31;;;;;;;31.38;15.43;;;;;;;2.55;58.50;101698.97;4961583;28;20085;-71
2021/12/12 05:03:59;;;;;;;35.00;14.25;;;;;;;2.70;57.69;101686.16;4982956;28;20060;-72
2021/12/12 05:06:43;;;;;;;26.55;13.68;;;;;;;2.11;59.38;101691.78;4981425;28;20121;-70
2021/12/12 05:09:14;;;;;;;30.75;12.88;;;;;;;1.73;60.83;101702.59;4963197;28;20117;-71
2021/12/12 05:11:59;;;;;;;23.53;11.30;;;;;;;2.51;58.70;101686.88;4980863;28;20794;-70
2021/12/12 05:14:30;;;;;;;30.80;12.15;;;;;;;2.91;57.61;101685.44;4978959;28;20268;-66
2021/12/12 05:17:09;;;;;;;29.08;12.00;;;;;;;2.72;57.81;101689.63;4964037;28;20135;-66
2021/12/12 05:19:38;;;;;;;26.98;13.07;;;;;;;2.51;58.79;101689.47;4981347;28;20062;-66
2021/12/12 05:22:14;;;;;;;25.23;11.65;;;;;;;2.67;58.33;101700.78;4980637;28;20038;-68
2021/12/12 05:24:41;;;;;;;21.45;11.10;;;;;;;2.59;58.66;101692.97;4978970;28;20121;-68
2021/12/12 05:27:13;;;;;;;26.85;12.18;;;;;;;2.75;57.91;101689.63;4975827;28;20089;-67
2021/12/12 05:29:45;;;;;;;27.92;12.82;;;;;;;2.91;57.50;101679.38;4955098;28;20129;-67
2021/12/12 05:32:13;;;;;;;26.77;11.48;;;;;;;2.30;59.55;101688.47;4979826;28;20085;-69
2021/12/12 05:34:41;;;;;;;27.95;11.80;;;;;;;2.64;58.52;101691.28;4962975;28;20038;-69
2021/12/12 05:37:10;;;;;;;24.63;11.70;;;;;;;2.80;57.97;101681.03;4980561;28;20388;-70
2021/12/12 05:39:37;;;;;;;17.58;10.63;;;;;;;2.59;58.23;101677.50;4964045;28;20451;-70
2021/12/12 05:42:03;;;;;;;30.63;12.98;;;;;;;2.81;58.18;101675.91;4981828;28;20042;-70
2021/12/12 05:44:29;;;;;;;22.55;11.85;;;;;;;2.51;58.98;101682.63;4978729;28;20045;-71
2021/12/12 05:46:59;;;;;;;19.75;10.57;;;;;;;2.27;59.55;101683.31;4969655;28;20183;-71
2021/12/12 05:49:25;;;;;;;21.63;10.95;;;;;;;2.70;58.20;101675.84;4953162;28;20189;-71
2021/12/12 05:51:51;;;;;;;28.35;12.75;;;;;;;2.69;58.48;101671.53;4982673;28;20105;-71
2021/12/12 05:54:17;;;;;;;21.90;11.60;;;;;;;2.47;59.20;101673.13;4980874;28;20181;-71
2021/12/12 05:56:43;;;;;;;20.60;10.55;;;;;;;2.68;58.58;101672.38;4961525;28;20564;-71
2021/12/12 05:59:11;;;;;;;20.55;11.23;;;;;;;2.86;58.06;101660.44;4978879;28;20182;-68
2021/12/12 06:01:38;;;;;;;17.05;9.65;;;;;;;2.70;57.89;101662.06;4981571;28;20042;-68
2021/12/12 06:04:04;;;;;;;18.10;9.80;;;;;;;2.64;58.87;101670.63;4979338;28;20144;-67
2021/12/12 06:06:38;;;;;;;17.35;9.52;;;;;;;2.62;59.00;101666.31;4960934;28;20034;-69
2021/12/12 06:09:07;;;;;;;16.60;10.27;;;;;;;2.71;58.58;101667.25;4954333;28;20043;-73
2021/12/12 06:11:37;;;;;;;16.20;9.57;;;;;;;2.72;58.47;101668.97;4959344;28;20098;-72
2021/12/12 06:14:04;;;;;;;19.58;9.55;;;;;;;2.86;58.27;101655.25;4978167;28;20137;-70
2021/12/12 06:16:31;;;;;;;13.98;8.35;;;;;;;2.39;59.58;101661.03;4952495;28;20065;-70
2021/12/12 06:19:12;;;;;;;14.85;7.97;;;;;;;2.92;58.08;101652.72;4936777;28;20054;-68
2021/12/12 06:21:38;;;;;;;16.13;9.80;;;;;;;2.80;58.51;101647.47;4963261;28;20117;-69
2021/12/12 06:24:04;;;;;;;16.00;8.05;;;;;;;2.98;58.05;101657.91;4965275;28;20034;-68
2021/12/12 06:26:30;;;;;;;13.90;8.75;;;;;;;2.40;60.19;101661.03;4979909;28;20049;-71
2021/12/12 06:28:56;;;;;;;14.07;8.85;;;;;;;2.49;59.71;101663.69;4977521;28;20035;-70
2021/12/12 06:31:22;;;;;;;13.90;8.18;;;;;;;2.77;58.81;101653.50;4980611;28;20427;-72
2021/12/12 06:33:48;;;;;;;13.63;7.65;;;;;;;2.12;60.26;101639.34;4963273;28;20126;-71
2021/12/12 06:36:15;;;;;;;12.65;6.60;;;;;;;2.25;60.46;101648.88;4964591;28;20108;-72
2021/12/12 06:38:44;;;;;;;16.15;8.27;;;;;;;2.54;59.64;101655.97;4978985;28;20042;-72
2021/12/12 06:41:10;;;;;;;12.68;7.50;;;;;;;2.61;60.04;101657.72;4982773;28;20085;-71
2021/12/12 06:43:37;;;;;;;11.43;6.70;;;;;;;2.52;59.78;101648.19;4981556;28;20118;-71
2021/12/12 06:46:05;;;;;;;12.07;6.65;;;;;;;2.13;61.13;101657.41;4981231;28;20070;-69
2021/12/12 06:48:31;;;;;;;10.50;6.90;;;;;;;2.73;59.75;101650.06;4964775;28;20039;-70
2021/12/12 06:50:58;;;;;;;10.43;6.45;;;;;;;2.23;61.19;101650.59;4968217;28;20103;-70
2021/12/12 06:53:26;;;;;;;10.60;6.53;;;;;;;2.43;60.66;101653.31;4982560;28;20050;-73
2021/12/12 06:55:55;;;;;;;9.50;5.68;;;;;;;2.34;60.89;101651.53;4981453;28;20451;-72
2021/12/12 06:58:22;;;;;;;10.93;6.78;;;;;;;2.49;60.43;101657.66;4984948;28;20581;-72
2021/12/12 07:00:52;;;;;;;10.25;5.88;;;;;;;2.44;60.32;101660.19;4986641;28;20065;-70
2021/12/12 07:03:19;;;;;;;13.38;7.07;;;;;;;2.38;60.98;101657.59;4968152;28;20046;-71
2021/12/12 07:05:45;;;;;;;10.13;6.13;;;;;;;2.37;61.16;101652.41;4970768;28;20030;-71
2021/12/12 07:08:10;;;;;;;9.63;6.00;;;;;;;2.24;61.69;101659.19;4986672;28;20060;-72
2021/12/12 07:10:36;;;;;;;10.50;6.00;;;;;;;2.82;59.59;101661.25;4982214;28;20031;-72
2021/12/12 07:13:03;;;;;;;13.23;6.07;;;;;;;2.71;59.94;101656.03;4949420;28;20053;-71
2021/12/12 07:15:56;;;;;;;10.88;6.43;;;;;;;2.67;60.34;101644.84;4984995;28;20034;-72
2021/12/12 07:18:27;;;;;;;9.43;5.88;;;;;;;2.46;60.61;101647.28;4966156;28;20054;-70
2021/12/12 07:20:55;;;;;;;11.10;6.40;;;;;;;2.11;62.19;101640.19;4983094;28;20046;-70
2021/12/12 07:23:22;;;;;;;11.45;6.10;;;;;;;2.86;59.88;101645.78;4969391;28;20030;-69
2021/12/12 07:25:48;;;;;;;10.60;5.47;;;;;;;2.63;60.11;101640.53;4954623;28;20398;-69
2021/12/12 07:28:15;;;;;;;7.75;4.95;;;;;;;3.06;59.25;101653.63;4982110;28;20038;-70
2021/12/12 07:30:42;;;;;;;9.20;5.95;;;;;;;2.40;61.37;101660.16;4983250;28;20037;-70
2021/12/12 07:33:08;;;;;;;8.35;4.82;;;;;;;2.75;60.37;101674.13;4984357;28;20576;-71
2021/12/12 07:35:37;;;;;;;11.13;6.00;;;;;;;2.71;60.83;101656.94;4967992;28;20030;-71
2021/12/12 07:38:07;;;;;;;8.80;5.65;;;;;;;2.68;60.67;101687.88;4968401;28;20521;-68
2021/12/12 07:40:33;;;;;;;8.13;5.43;;;;;;;2.32;61.83;101679.03;4954034;28;20035;-70
2021/12/12 07:42:59;;;;;;;10.63;5.03;;;;;;;2.62;60.38;101677.50;4982108;28;20042;-71
2021/12/12 07:45:25;;;;;;;7.88;4.85;;;;;;;2.71;61.13;101667.25;4968236;28;20100;-67
2021/12/12 07:47:53;;;;;;;7.68;4.72;;;;;;;2.97;59.86;101676.81;4981596;28;20100;-69
2021/12/12 07:50:22;;;;;;;8.02;4.30;;;;;;;2.69;60.80;101674.13;4965329;28;20103;-69
2021/12/12 07:52:50;;;;;;;5.30;3.85;;;;;;;2.24;62.52;101665.22;4987664;28;20044;-67
2021/12/12 07:55:16;;;;;;;6.65;4.55;;;;;;;2.89;60.29;101663.91;4981646;28;20041;-68
2021/12/12 07:57:42;;;;;;;4.50;3.55;;;;;;;3.15;59.33;101671.72;4983075;28;20038;-73
2021/12/12 08:00:23;;;;;;;4.95;3.97;;;;;;;3.03;59.76;101676.00;4966662;28;20049;-69
2021/12/12 08:02:50;;;;;;;5.85;3.47;;;;;;;2.69;61.27;101675.81;4982312;28;20105;-69
2021/12/12 08:05:18;;;;;;;8.35;4.40;;;;;;;2.91;60.35;101671.63;4982795;28;20042;-68
2021/12/12 08:07:44;;;;;;;7.40;4.43;;;;;;;3.01;60.89;101681.16;4982984;28;20042;-70
2021/12/12 08:10:12;;;;;;;6.95;4.90;;;;;;;3.33;59.99;101677.84;4976733;28;20025;-67
2021/12/12 08:12:39;;;;;;;12.70;4.78;;;;;;;3.24;59.58;101685.56;4981637;28;20034;-69
2021/12/12 08:15:08;;;;;;;8.27;4.85;;;;;;;2.61;61.59;101691.28;4954621;28;20467;-69
2021/12/12 08:17:34;;;;;;;9.02;4.40;;;;;;;3.10;61.10;101681.19;4984726;28;20430;-68
2021/12/12 08:20:02;;;;;;;6.30;3.97;;;;;;;3.00;60.82;101674.25;4981294;28;20121;-68
2021/12/12 08:22:28;;;;;;;7.63;4.35;;;;;;;2.27;63.05;101680.72;4968268;28;20317;-71
2021/12/12 08:24:59;;;;;;;5.70;4.28;;;;;;;3.28;60.71;101674.38;4982728;28;20045;-70
2021/12/12 08:27:28;;;;;;;6.82;3.90;;;;;;;3.27;60.05;101682.97;4982047;28;20042;-69
2021/12/12 08:29:56;;;;;;;7.30;5.05;;;;;;;2.83;61.58;101678.50;4980704;28;20077;-70
2021/12/12 08:32:23;;;;;;;9.05;5.05;;;;;;;3.50;59.93;101691.69;4956369;28;20122;-71
2021/12/12 08:34:48;;;;;;;7.80;4.18;;;;;;;3.08;61.72;101682.91;4984866;28;20023;-69
2021/12/12 08:37:14;;;;;;;7.38;4.43;;;;;;;2.95;61.46;101691.44;4965582;28;20439;-67
2021/12/12 08:39:40;;;;;;;6.13;4.18;;;;;;;3.01;61.61;101694.06;4963645;28;20089;-68
2021/12/12 08:42:06;;;;;;;5.25;3.65;;;;;;;3.41;60.64;101704.59;4982023;28;20608;-69
2021/12/12 08:44:35;;;;;;;6.05;4.40;;;;;;;3.59;59.55;101702.06;4953777;28;20038;-68
2021/12/12 08:47:06;;;;;;;8.23;4.45;;;;;;;3.78;58.82;101691.75;4982737;28;20042;-70
2021/12/12 08:49:34;;;;;;;8.32;3.75;;;;;;;2.92;62.23;101694.88;4965518;28;20038;-69
2021/12/12 08:52:06;;;;;;;4.63;3.70;;;;;;;3.92;59.33;101707.31;4962268;28;20065;-69
2021/12/12 08:54:36;;;;;;;4.57;3.83;;;;;;;3.05;61.81;101705.28;4981698;28;20225;-68
2021/12/12 08:57:20;;;;;;;8.05;4.07;;;;;;;3.47;60.62;101706.31;4987779;28;20161;-70
2021/12/12 08:59:47;;;;;;;4.95;3.88;;;;;;;3.03;61.73;101710.44;4969721;28;20069;-68
2021/12/12 09:02:16;;;;;;;5.53;3.97;;;;;;;3.52;60.31;101695.16;4976771;28;20512;-68
2021/12/12 09:04:48;;;;;;;4.10;3.05;;;;;;;3.35;61.04;101699.41;4961163;28;20026;-69
2021/12/12 09:07:21;;;;;;;5.60;3.65;;;;;;;3.46;60.67;101708.03;4976618;28;20042;-68
2021/12/12 09:10:07;;;;;;;5.80;4.00;;;;;;;3.59;60.38;101704.63;4976273;28;20121;-68
2021/12/12 09:12:48;;;;;;;11.52;4.60;;;;;;;3.93;59.42;101711.59;4947010;28;20053;-67
2021/12/12 09:15:47;;;;;;;5.35;3.13;;;;;;;3.69;59.71;101715.00;4955098;28;20039;-69
2021/12/12 09:18:20;;;;;;;6.03;4.10;;;;;;;3.06;62.25;101718.19;4946650;28;20120;-69
2021/12/12 09:20:58;;;;;;;7.43;4.25;;;;;;;3.35;61.87;101722.66;4958105;28;20030;-69
2021/12/12 09:23:34;;;;;;;9.80;4.32;;;;;;;3.03;61.62;101704.41;4959378;28;20038;-69
2021/12/12 09:26:04;;;;;;;8.48;4.78;;;;;;;2.99;62.92;101711.28;4961105;28;20041;-70
2021/12/12 09:28:37;;;;;;;9.20;4.78;;;;;;;3.86;60.24;101702.13;4976910;28;20041;-69
2021/12/12 09:31:17;;;;;;;8.25;5.40;;;;;;;3.51;61.08;101711.50;4977246;28;20031;-69
2021/12/12 09:33:50;;;;;;;5.93;4.28;;;;;;;3.52;61.03;101713.25;4975467;28;20038;-70
2021/12/12 09:36:20;;;;;;;9.27;5.25;;;;;;;3.96;60.12;101728.00;4978827;28;20061;-68
2021/12/12 09:38:52;;;;;;;7.97;4.72;;;;;;;4.13;59.68;101719.38;4979094;28;20039;-69
2021/12/12 09:41:23;;;;;;;7.20;4.50;;;;;;;4.04;60.15;101706.44;4977742;28;20077;-69
2021/12/12 09:44:04;;;;;;;6.07;4.25;;;;;;;3.85;60.59;101719.34;4957958;28;20042;-68
2021/12/12 09:47:00;;;;;;;8.52;5.05;;;;;;;3.97;60.04;101719.34;4978815;28;20050;-69
2021/12/12 09:52:53;;;;;;;7.35;5.13;;;;;;;3.75;60.76;101717.59;4956666;28;20041;-69
2021/12/12 09:55:40;;;;;;;10.10;5.75;;;;;;;3.74;61.17;101715.91;4933646;28;20046;-69
2021/12/12 09:58:26;;;;;;;8.25;4.85;;;;;;;3.35;62.37;101723.50;4980496;28;20046;-69
2021/12/12 10:01:03;;;;;;;7.07;4.35;;;;;;;3.57;62.02;101718.44;4976985;28;20436;-69
2021/12/12 10:03:51;;;;;;;7.85;5.05;;;;;;;3.86;61.06;101723.66;4962322;28;20568;-69
2021/12/12 10:06:32;;;;;;;10.95;5.60;;;;;;;4.04;60.54;101724.56;4976538;28;20089;-68
2021/12/12 10:09:12;;;;;;;5.90;3.73;;;;;;;3.36;62.48;101729.56;4978079;28;20051;-68
2021/12/12 10:11:52;;;;;;;8.40;5.78;;;;;;;3.56;62.57;101722.75;4974601;28;20451;-70
2021/12/12 10:14:53;;;;;;;9.02;5.03;;;;;;;3.72;62.20;101717.59;4976148;28;20030;-69
2021/12/12 10:17:26;;;;;;;7.97;4.90;;;;;;;3.86;61.29;101715.03;4974897;28;20521;-69
2021/12/12 10:20:00;;;;;;;9.85;6.25;;;;;;;4.22;60.38;101716.78;4952369;28;20999;-69
2021/12/12 10:22:46;;;;;;;10.68;6.78;;;;;;;4.06;60.53;101722.81;4973842;28;21143;-68
2021/12/12 10:25:18;;;;;;;10.25;6.93;;;;;;;3.90;61.76;101727.97;4958795;28;20034;-69
2021/12/12 10:27:57;;;;;;;12.38;8.05;;;;;;;4.15;61.15;101725.41;4961456;28;20063;-70
2021/12/12 10:30:25;;;;;;;11.00;5.72;;;;;;;3.78;62.19;101722.78;4960090;28;20069;-69
2021/12/12 10:33:14;;;;;;;10.18;6.30;;;;;;;4.11;61.15;101721.09;4974778;28;20034;-70
2021/12/12 10:35:46;;;;;;;11.07;6.03;;;;;;;4.34;60.40;101721.97;4984550;28;20507;-71
2021/12/12 10:38:25;;;;;;;12.57;7.03;;;;;;;4.40;60.25;101714.19;4981783;28;20070;-70
2021/12/12 10:40:57;;;;;;;12.25;7.85;;;;;;;4.37;60.60;101713.34;4968465;28;20355;-69
2021/12/12 10:43:32;;;;;;;12.43;6.72;;;;;;;4.17;61.22;101718.53;4982199;28;20556;-69
2021/12/12 10:46:05;;;;;;;11.07;5.80;;;;;;;4.19;61.24;101711.63;4980293;28;20113;-70
2021/12/12 10:48:42;;;;;;;9.18;5.00;;;;;;;4.56;60.08;101715.03;4981270;28;20046;-70
2021/12/12 10:51:07;;;;;;;9.32;5.38;;;;;;;4.62;59.94;101720.19;4984304;28;20498;-70
2021/12/12 10:53:44;;;;;;;14.82;6.70;;;;;;;4.25;60.86;101719.34;4979312;28;20117;-69
2021/12/12 10:56:26;;;;;;;10.13;5.50;;;;;;;4.20;61.47;101726.28;4981508;28;20108;-70
2021/12/12 10:58:58;;;;;;;10.32;6.07;;;;;;;4.29;61.42;101718.50;4980480;28;20050;-69
2021/12/12 11:01:29;;;;;;;8.40;5.85;;;;;;;4.36;60.70;101730.59;4965226;28;20042;-69
2021/12/12 11:04:23;;;;;;;11.18;5.75;;;;;;;4.67;60.38;101716.75;4981318;28;20041;-70
2021/12/12 11:06:51;;;;;;;9.85;4.88;;;;;;;4.50;61.06;101724.53;4979015;28;20045;-69
2021/12/12 11:09:25;;;;;;;10.90;5.65;;;;;;;4.74;60.42;101719.31;4967404;28;20034;-70
2021/12/12 11:12:24;;;;;;;9.07;5.90;;;;;;;5.05;59.38;101714.09;4982764;28;20077;-70
2021/12/12 11:14:56;;;;;;;11.32;5.57;;;;;;;4.66;60.21;101723.66;4938318;28;20051;-70
2021/12/12 11:17:27;;;;;;;9.48;5.90;;;;;;;4.98;60.08;101722.75;4978036;28;20134;-69
2021/12/12 11:20:20;;;;;;;13.18;7.00;;;;;;;5.03;59.88;101724.47;4954493;28;20038;-70
2021/12/12 11:22:55;;;;;;;10.63;6.75;;;;;;;5.08;59.71;101737.41;4979221;28;20070;-69
2021/12/12 11:25:45;;;;;;;11.70;6.85;;;;;;;5.65;57.88;101738.00;4979780;28;20038;-72
2021/12/12 11:28:26;;;;;;;15.55;7.38;;;;;;;5.17;59.65;101745.16;4984388;28;20574;-70
2021/12/12 11:31:07;;;;;;;14.50;7.07;;;;;;;4.97;60.12;101732.25;4980003;28;20617;-68
2021/12/12 11:33:36;;;;;;;13.27;6.80;;;;;;;4.83;60.68;101724.50;4962966;28;20169;-68
2021/12/12 11:36:04;;;;;;;11.27;6.63;;;;;;;5.38;59.33;101735.56;4983879;28;20030;-69
2021/12/12 11:39:16;;;;;;;13.63;7.50;;;;;;;5.47;59.39;101732.91;4964332;28;20530;-69
2021/12/12 11:42:20;;;;;;;8.75;5.95;;;;;;;4.76;61.81;101734.84;4969161;28;20096;-67
2021/12/12 11:45:04;;;;;;;11.27;6.90;;;;;;;5.55;59.54;101733.75;4883735;29;20046;-69
2021/12/12 11:47:42;;;;;;;16.77;7.63;;;;;;;5.39;60.30;101737.28;4902360;29;20044;-69
2021/12/12 11:50:27;;;;;;;19.00;10.27;;;;;;;5.83;58.81;101733.56;4933252;28;20117;-71
2021/12/12 11:53:13;;;;;;;14.23;9.20;;;;;;;5.90;58.49;101745.63;4980028;28;20048;-67
2021/12/12 11:55:47;;;;;;;10.27;6.13;;;;;;;5.53;59.72;101742.41;4977832;28;20255;-67
2021/12/12 11:58:31;;;;;;;11.65;7.38;;;;;;;5.35;60.29;101741.63;4980327;28;20477;-69
2021/12/12 12:01:18;;;;;;;10.52;6.40;;;;;;;6.02;58.42;101748.16;4962708;28;20121;-69
2021/12/12 12:04:04;;;;;;;14.13;8.18;;;;;;;5.84;59.68;101738.78;4980730;28;20056;-68